EA1YR
43.22.09N 005.51.86W
IN73BI aprs.fi
zuletzt gehoert:
2021-04-23T15:06:38Z
zuerst gehoert:
2020-06-08T13:00:09Z

APRS Oviedo [IN73BI], 0 Stunde(n), EA1YR [17:35:46, 0s].
EA1YR 43.22.09N 005.51.86WIN73BI 0.484km 280°W15:06:38ZMMDVM DVS 434.3500/434.3500 CC1
33D00 43.21.63N 005.51.13WIN73BI 0.942km 146°SE15:01:43Z33-D-00 Protección Civil REMER / Delegación del Gobierno en Asturias
EA1JBE 43.21.56N 005.50.46WIN73BI 1.682km 122°ESE15:35:04Z434.525MHz Nodo TETRA DMO(3EA1JBE-2)
ED1ZAU 43.23.04N 005.52.75WIN73BJ 2.479km 317°NW15:07:33ZRD625 438.5000/430.9000 CC1
LEHU 43.22.63N 005.49.57WIN73CJ 2.818km 68°ENE15:30:03ZHelipuerto del HUCA: LEAS 231500Z VRB02KT 9999 FEW050 21/11 Q1012 NOSIG=
EA1L 43.20.37N 005.51.13WIN73BI 3.145km 170°S15:30:06Zea1l@ure.es V=11.7V,T=??.?C
Wind 000°/000kn, Böen bis 000kn, Temp 0.00c, Regen 0.0mm, letzte 24h 0.0mm, seit 0h 0.0mm, Baro 0000.0h, Hum: 0%(2EA1L-13)
EA1ABW 43.24.77N 005.47.77WIN73CJ 7.129km 45°NE15:32:00ZMMDVM MMDVM HS Hat 439.8250/439.8250 CC1
LEMR 43.25.83N 005.49.60WIN73CK 7.452km 20°NNE15:30:04ZAerodromo de la Morgal: LEAS 231500Z VRB02KT 9999 FEW050 21/11 Q1012 NOSIG=
EB1CAM 43.18.02N 005.53.08WIN73BH 7.770km 196°SSW15:35:36ZEB1CAM por ahi(3EB1CAM-9)
LEGM 43.26.15N 005.49.84WIN73CK 7.936km 17°NNE15:30:03ZHelipuerto de La Morgal: LEAS 231500Z VRB02KT 9999 FEW050 21/11 Q1012 NOSIG=
ED1ZAY 43.29.47N 005.56.54WIN73AL 15.337km 334°NNW15:07:30ZRD625 438.3000/430.7000 CC1
EA1IMW 43.14.36N 005.46.93WIN73CF 15.540km 157°SSE15:06:18ZGRUPO RADIO GALENA (GRG) 433.4500/433.4500 CC1
ED1ZAS 43.27.52N 005.40.17WIN73DL 18.324km 56°NE15:07:25ZRD985 438.2250/430.6250 CC1
ED1ZAE 43.27.99N 005.40.54WIN73DL 18.407km 53°NE15:26:51Z2m Voice 145.5875 -0.600 Mhz(3ED1ZAE-C)
400 M. PICO SAN MARTIN (GIJON) 13.5V,23.7C(2ED1ZAE-3)
EA1JBL 43.12.28N 005.47.42WIN73CE 18.913km 163°SSE15:35:36ZMMDVM DVMega 435.3000/435.3000 CC1
EB1DGC 43.12.60N 005.45.59WIN73CF 19.250km 155°SSE15:32:07ZMMDVM MMDVM HS Hat 433.4500/433.4500 CC1
EA1HWA 43.12.00N 005.47.40WIN73CE 19.439km 163°SSE15:34:15ZMMDVM MMDVM HS Hat 433.4500/433.4500 CC1
EA1AHA 43.32.74N 005.54.36WIN73BN 20.169km 349°N15:01:02ZWind 270°/005kn, Böen bis 008kn, Temp 23.33c, Regen 0.0mm, letzte 24h 0.0mm, seit 0h 0.0mm, Baro 1013.2h, Hum: 36%(3EA1AHA-13)
MMDVM MMDVM HS 432.5000/432.5000 CC1(2EA1AHA)
EA1FLQ 43.22.00N 005.36.35WIN73EI 20.416km 90°E15:34:26ZMMDVM DVMega 439.9750/439.9750 CC5
EA1IZV 43.33.25N 005.55.92WIN73AN 21.578km 344°NNW15:15:02ZEn proceso...
EB1TK 43.32.22N 005.42.32WIN73DM 22.551km 33°NNE15:35:16ZWind 347°/000kn, Böen bis 002kn, Temp 18.89c, Regen 0.0mm, letzte 24h 0.0mm, seit 0h 0.0mm, Baro 1015.4h, Hum: 66%(3EB1TK-13)
EA1FFA 43.31.53N 005.40.64WIN73DM 22.870km 40°NE15:33:09ZMMDVM MMDVM HS Hat 438.8000/438.8000 CC1
EA1DZR 43.31.47N 005.40.00WIN73DM 23.324km 42°NE15:06:44ZMMDVM DVMega 431.1000/431.1000 CC1
EA1RCG 43.09.45N 005.49.78WIN73CD 23.452km 174°S15:07:00ZGRUPO RADIO GALENA (GRG) 433.4500/433.4500 CC1
EA1DHE 43.33.98N 005.58.57WIN73AN 24.066km 337°NNW15:06:38ZMMDVM DVS 434.3500/434.3500 CC1
LEEL 43.32.98N 005.41.71WIN73DN 24.155km 33°NNE15:30:04ZHelipuerto de El Musel: LEAS 231500Z VRB02KT 9999 FEW050 21/11 Q1012 NOSIG=
EB1GEM 43.30.00N 005.36.07WIN73EM 25.481km 55°NE15:21:39ZWX3in1Plus2.0 U=13.3V,T=??.?C/??.?F(3EB1GEM-3)
EA1GHQ 43.30.67N 005.36.12WIN73EM 26.153km 52°NE15:30:13ZTransmission ended(3EA1GHQ-7)
EA1HJA 43.28.10N 005.30.45WIN73FL 30.486km 68°ENE15:20:14Z IN73FL WX3IN1+ 2.0 - V=13.9V,TX TEMP=44.8C
IN73FL WX3IN1+ 2.0 - V=13.3V,TX TEMP=32.6C(2EA1HJA-2)
ED1ZAD 43.07.90N 005.38.52WIN73ED 31.529km 146°SE15:35:14ZED1ZAD-3 APRS Digi/Igate(3ED1ZAD-3)
EA1FHR 43.28.72N 005.26.41WIN73GL 35.962km 70°ENE15:33:24ZMMDVM MMDVM HS Hat 439.1500/439.1500 CC1
EA1JAY 43.29.32N 005.26.60WIN73GL 36.138km 68°ENE15:34:38Z434.525MHz Nodo TETRA DMO(3EA1JAY-4)
EA1JAY(2EA1JAY-2)
EA1JAY 438.8000/438.8000 CC1(2EA1JAY)
EC1KV 43.34.01N 006.16.01WIN63UN 39.697km 304°NW15:35:41Z VOLT.=13.5 V - TEMP.=??.? C(3EC1KV-1)
LETN 43.20.05N 006.22.69WIN63TI 42.181km 265°W15:30:04ZAerodromo de La Curiscada (Tineo): LEAS 231500Z VRB02KT 9999 FEW050 21/11 Q1012 NOSIG=
EC1AE 43.08.94N 006.18.77WIN63UD 44.092km 237°WSW15:22:17Z IN63UD VOLT.=13.8 V - TEMP.=??.? C(3EC1AE-2)

aprs.pl 5.0.011w DL3EL © 2006-2021 [277701]